Time;durP1;ratioP1;P1;durP2;ratioP2;P2;SDS_P1;SDS_P2;PMS_P1;PMS_P2;Temp;Humidity;BMP_temperature;BMP_pressure;BME280_temperature;BME280_humidity;BME280_pressure;Samples;Min_cycle;Max_cycle;Signal;HPM_P1;HPM_P2
2023/03/16 00:02:43;;;;;;;;;;;22.10;43.90;;;;;;6133626;29;19946;-49
2023/03/16 00:05:45;;;;;;;;;;;22.30;44.20;;;;;;6132855;29;19970;-50
2023/03/16 00:08:46;;;;;;;;;;;22.20;44.10;;;;;;6131214;29;19934;-48
2023/03/16 00:11:48;;;;;;;;;;;22.50;44.30;;;;;;6133392;29;19974;-48
2023/03/16 00:14:49;;;;;;;;;;;22.00;44.20;;;;;;6134009;29;19930;-52
2023/03/16 00:17:51;;;;;;;;;;;22.30;44.30;;;;;;6133504;29;19922;-50
2023/03/16 00:20:54;;;;;;;;;;;22.10;44.30;;;;;;6133130;29;19923;-49
2023/03/16 00:24:02;;;;;;;;;;;22.20;44.30;;;;;;6132479;29;19970;-49
2023/03/16 00:27:04;;;;;;;;;;;22.40;42.40;;;;;;6120112;29;19969;-53
2023/03/16 00:30:07;;;;;;;;;;;22.50;44.70;;;;;;6139039;29;19923;-48
2023/03/16 00:33:09;;;;;;;;;;;22.40;44.30;;;;;;6139865;29;19929;-49
2023/03/16 00:36:11;;;;;;;;;;;22.50;44.60;;;;;;6138100;29;19922;-50
2023/03/16 00:39:13;;;;;;;;;;;22.40;44.50;;;;;;6140436;29;19922;-51
2023/03/16 00:42:16;;;;;;;;;;;22.30;44.50;;;;;;6140507;29;19923;-50
2023/03/16 00:45:18;;;;;;;;;;;22.00;44.90;;;;;;6139135;29;19930;-49
2023/03/16 00:48:23;;;;;;;;;;;22.40;44.60;;;;;;6136379;29;20330;-49
2023/03/16 00:51:24;;;;;;;;;;;22.30;44.50;;;;;;6136083;29;19930;-51
2023/03/16 00:54:26;;;;;;;;;;;22.00;44.40;;;;;;6136951;29;20331;-50
2023/03/16 00:57:28;;;;;;;;;;;22.30;44.50;;;;;;6136198;29;19985;-49
2023/03/16 01:00:32;;;;;;;;;;;22.30;44.60;;;;;;6136470;29;20422;-48
2023/03/16 01:03:34;;;;;;;;;;;22.00;44.40;;;;;;6137167;29;19930;-51
2023/03/16 01:06:36;;;;;;;;;;;22.30;44.70;;;;;;6138030;29;19923;-50
2023/03/16 01:09:41;;;;;;;;;;;22.50;44.90;;;;;;6134644;29;19936;-50
2023/03/16 01:12:44;;;;;;;;;;;22.30;44.70;;;;;;6130725;29;20318;-49
2023/03/16 01:15:45;;;;;;;;;;;22.00;44.60;;;;;;6136560;29;19929;-51
2023/03/16 01:18:51;;;;;;;;;;;22.30;44.90;;;;;;6135985;29;20018;-48
2023/03/16 01:21:52;;;;;;;;;;;22.10;44.70;;;;;;6138084;29;19922;-52
2023/03/16 01:24:55;;;;;;;;;;;22.20;44.80;;;;;;6138157;29;20299;-47
2023/03/16 01:27:57;;;;;;;;;;;22.20;44.90;;;;;;6137120;29;19929;-49
2023/03/16 01:31:00;;;;;;;;;;;22.20;44.90;;;;;;6135506;29;19929;-51
2023/03/16 01:34:03;;;;;;;;;;;22.00;44.70;;;;;;6134438;29;19929;-47
2023/03/16 01:37:04;;;;;;;;;;;22.20;44.80;;;;;;6131997;29;20017;-49
2023/03/16 01:40:19;;;;;;;;;;;22.00;44.80;;;;;;6132990;29;19923;-48
2023/03/16 01:43:21;;;;;;;;;;;21.90;44.70;;;;;;6132746;29;19923;-50
2023/03/16 01:46:24;;;;;;;;;;;22.00;44.70;;;;;;6131730;29;19923;-51
2023/03/16 01:49:31;;;;;;;;;;;21.90;44.70;;;;;;6131256;29;19927;-49
2023/03/16 01:52:36;;;;;;;;;;;22.30;45.00;;;;;;6131365;29;19923;-47
2023/03/16 01:55:37;;;;;;;;;;;22.20;44.90;;;;;;6131220;29;19942;-52
2023/03/16 01:58:42;;;;;;;;;;;22.00;44.80;;;;;;6133538;29;19930;-48
2023/03/16 02:01:45;;;;;;;;;;;22.10;44.90;;;;;;6134646;29;19922;-51
2023/03/16 02:04:51;;;;;;;;;;;21.80;44.80;;;;;;6132662;29;19922;-51
2023/03/16 02:07:57;;;;;;;;;;;21.80;44.70;;;;;;6129568;29;19923;-50
2023/03/16 02:10:59;;;;;;;;;;;21.90;45.00;;;;;;6129112;29;19922;-49
2023/03/16 02:14:14;;;;;;;;;;;22.10;44.90;;;;;;6128678;29;20013;-49
2023/03/16 02:17:18;;;;;;;;;;;21.90;45.00;;;;;;6163028;23;19987;-45
2023/03/16 02:20:27;;;;;;;;;;;22.00;44.90;;;;;;6158882;28;19953;-45
2023/03/16 02:23:31;;;;;;;;;;;22.40;45.10;;;;;;6159377;28;20278;-45
2023/03/16 02:26:36;;;;;;;;;;;21.90;44.90;;;;;;6158744;28;19923;-44
2023/03/16 02:29:44;;;;;;;;;;;21.70;44.80;;;;;;6158090;28;19922;-44
2023/03/16 02:32:48;;;;;;;;;;;21.90;44.90;;;;;;6160755;28;20061;-45
2023/03/16 02:35:49;;;;;;;;;;;21.80;44.90;;;;;;6160355;28;20282;-46
2023/03/16 02:38:50;;;;;;;;;;;21.80;44.80;;;;;;6160804;28;19989;-44
2023/03/16 02:41:53;;;;;;;;;;;21.80;45.00;;;;;;6162535;28;19946;-49
2023/03/16 02:44:56;;;;;;;;;;;21.80;45.10;;;;;;6167249;28;19922;-45
2023/03/16 02:48:02;;;;;;;;;;;21.80;45.00;;;;;;6165983;28;20397;-46
2023/03/16 02:51:05;;;;;;;;;;;21.70;44.90;;;;;;6163192;29;19933;-45
2023/03/16 02:54:07;;;;;;;;;;;22.20;43.20;;;;;;6166326;28;19977;-47
2023/03/16 02:57:09;;;;;;;;;;;21.70;44.90;;;;;;6166524;29;19923;-45
2023/03/16 03:00:17;;;;;;;;;;;21.80;45.10;;;;;;6168970;28;19946;-46
2023/03/16 03:03:22;;;;;;;;;;;21.90;45.10;;;;;;6166232;28;20374;-47
2023/03/16 03:06:24;;;;;;;;;;;21.80;45.10;;;;;;6164664;28;19923;-47
2023/03/16 03:09:25;;;;;;;;;;;21.80;45.20;;;;;;6165566;28;19922;-47
2023/03/16 03:12:28;;;;;;;;;;;21.60;45.20;;;;;;6168588;28;19937;-46
2023/03/16 03:15:32;;;;;;;;;;;22.40;45.60;;;;;;6166526;28;20382;-45
2023/03/16 03:18:45;;;;;;;;;;;21.70;45.40;;;;;;6166856;28;20298;-46
2023/03/16 03:21:47;;;;;;;;;;;21.80;44.00;;;;;;6135506;29;19990;-47
2023/03/16 03:24:50;;;;;;;;;;;22.10;44.80;;;;;;6169066;28;19922;-44
2023/03/16 03:27:54;;;;;;;;;;;22.10;45.40;;;;;;6165044;28;19922;-48
2023/03/16 03:30:57;;;;;;;;;;;21.80;43.30;;;;;;6166478;28;19923;-46
2023/03/16 03:34:05;;;;;;;;;;;21.70;45.40;;;;;;6165979;28;19928;-46
2023/03/16 03:37:08;;;;;;;;;;;21.70;45.30;;;;;;6166653;28;19929;-46
2023/03/16 03:40:14;;;;;;;;;;;21.70;45.30;;;;;;6166470;28;19922;-46
2023/03/16 03:43:18;;;;;;;;;;;21.90;45.40;;;;;;6167628;28;19922;-47
2023/03/16 03:46:22;;;;;;;;;;;21.60;45.40;;;;;;6167741;28;19929;-47
2023/03/16 03:49:23;;;;;;;;;;;21.70;45.50;;;;;;6167405;28;20282;-45
2023/03/16 03:52:25;;;;;;;;;;;21.70;45.50;;;;;;6167537;28;19927;-48
2023/03/16 03:55:26;;;;;;;;;;;22.20;45.70;;;;;;6167885;28;19930;-45
2023/03/16 03:58:27;;;;;;;;;;;21.60;45.50;;;;;;6168224;28;19923;-45
2023/03/16 04:01:29;;;;;;;;;;;21.80;45.50;;;;;;6166318;28;19922;-45
2023/03/16 04:04:32;;;;;;;;;;;21.60;45.50;;;;;;6168456;28;19922;-45
2023/03/16 04:07:33;;;;;;;;;;;21.60;45.50;;;;;;6167862;28;20005;-46
2023/03/16 04:10:39;;;;;;;;;;;21.50;45.50;;;;;;6167966;28;19922;-44
2023/03/16 04:13:41;;;;;;;;;;;21.80;45.70;;;;;;6167568;28;19946;-44
2023/03/16 04:16:44;;;;;;;;;;;21.60;45.60;;;;;;6167776;28;19982;-46
2023/03/16 04:19:47;;;;;;;;;;;21.50;45.50;;;;;;6168072;28;19927;-46
2023/03/16 04:22:57;;;;;;;;;;;21.90;45.60;;;;;;6167844;28;19923;-47
2023/03/16 04:25:58;;;;;;;;;;;22.20;45.90;;;;;;6168400;28;19922;-44
2023/03/16 04:29:01;;;;;;;;;;;21.50;45.60;;;;;;6167828;28;19930;-45
2023/03/16 04:32:03;;;;;;;;;;;21.40;45.60;;;;;;6167869;28;19929;-46
2023/03/16 04:35:05;;;;;;;;;;;21.60;45.70;;;;;;6168020;28;19926;-49
2023/03/16 04:38:18;;;;;;;;;;;21.50;45.60;;;;;;6166980;28;19991;-45
2023/03/16 04:46:05;;;;;;;;;;;22.00;43.70;;;;;;6167132;29;19922;-45
2023/03/16 04:49:08;;;;;;;;;;;22.20;46.00;;;;;;6167205;28;19922;-46
2023/03/16 04:52:11;;;;;;;;;;;22.00;46.00;;;;;;6166984;28;19933;-45
2023/03/16 04:55:13;;;;;;;;;;;22.10;45.90;;;;;;6166363;28;20013;-45
2023/03/16 04:58:18;;;;;;;;;;;21.90;45.90;;;;;;6166536;28;19922;-46
2023/03/16 05:01:22;;;;;;;;;;;21.50;45.70;;;;;;6166487;28;19922;-46
2023/03/16 05:04:28;;;;;;;;;;;21.50;45.60;;;;;;6166095;28;19923;-45
2023/03/16 05:07:30;;;;;;;;;;;21.80;45.90;;;;;;6166269;28;20360;-45
2023/03/16 05:10:32;;;;;;;;;;;21.50;45.70;;;;;;6165799;28;19922;-45
2023/03/16 05:13:34;;;;;;;;;;;21.40;45.60;;;;;;6169038;28;19941;-45
2023/03/16 05:16:36;;;;;;;;;;;21.50;45.70;;;;;;6170059;28;19922;-46
2023/03/16 05:19:38;;;;;;;;;;;22.10;46.00;;;;;;6169883;28;19923;-45
2023/03/16 05:22:40;;;;;;;;;;;21.40;45.60;;;;;;6170125;28;19922;-45
2023/03/16 05:25:49;;;;;;;;;;;21.30;45.50;;;;;;6169824;28;19923;-46
2023/03/16 05:28:54;;;;;;;;;;;21.50;45.60;;;;;;6169547;29;19928;-45
2023/03/16 05:31:59;;;;;;;;;;;21.90;46.00;;;;;;6170623;28;19929;-45
2023/03/16 05:35:04;;;;;;;;;;;21.40;45.60;;;;;;6170089;28;20017;-48
2023/03/16 05:38:06;;;;;;;;;;;21.40;45.60;;;;;;6169385;28;19922;-45
2023/03/16 05:41:13;;;;;;;;;;;21.30;45.60;;;;;;6169904;28;19926;-46
2023/03/16 05:44:23;;;;;;;;;;;22.00;46.00;;;;;;6170042;28;19922;-46
2023/03/16 05:47:36;;;;;;;;;;;21.30;45.50;;;;;;6170533;28;19930;-46
2023/03/16 05:50:41;;;;;;;;;;;21.60;45.90;;;;;;6169622;28;20358;-44
2023/03/16 05:53:45;;;;;;;;;;;21.40;45.70;;;;;;6169906;28;19922;-49
2023/03/16 05:56:56;;;;;;;;;;;21.30;45.70;;;;;;6170040;28;19922;-46
2023/03/16 05:59:59;;;;;;;;;;;21.30;45.70;;;;;;6169450;28;20017;-46
2023/03/16 06:03:00;;;;;;;;;;;22.10;46.00;;;;;;6169349;28;19998;-45
2023/03/16 06:06:07;;;;;;;;;;;21.40;45.70;;;;;;6169061;28;19928;-45
2023/03/16 06:09:17;;;;;;;;;;;21.30;45.70;;;;;;6168842;28;19946;-47
2023/03/16 06:12:18;;;;;;;;;;;21.50;45.80;;;;;;6169000;28;19922;-47
2023/03/16 06:15:23;;;;;;;;;;;22.00;46.20;;;;;;6167405;28;20013;-45
2023/03/16 06:18:26;;;;;;;;;;;21.40;45.60;;;;;;6167592;28;19922;-46
2023/03/16 06:21:28;;;;;;;;;;;21.30;45.80;;;;;;6167915;28;20338;-46
2023/03/16 06:24:35;;;;;;;;;;;21.40;45.80;;;;;;6167431;28;19965;-48
2023/03/16 06:27:38;;;;;;;;;;;21.80;45.90;;;;;;6167472;28;20365;-45
2023/03/16 06:30:48;;;;;;;;;;;21.30;45.70;;;;;;6167532;28;19937;-44
2023/03/16 06:33:50;;;;;;;;;;;21.30;45.80;;;;;;6168980;28;19922;-47
2023/03/16 06:36:52;;;;;;;;;;;21.40;45.90;;;;;;6168350;28;19923;-47
2023/03/16 06:39:54;;;;;;;;;;;21.90;46.20;;;;;;6167894;28;19922;-45
2023/03/16 06:42:55;;;;;;;;;;;21.30;45.80;;;;;;6166912;28;19926;-48
2023/03/16 06:45:57;;;;;;;;;;;21.70;46.80;;;;;;6167142;28;19981;-48
2023/03/16 06:48:59;;;;;;;;;;;21.30;45.70;;;;;;6166785;28;19923;-45
2023/03/16 06:52:02;;;;;;;;;;;22.00;46.20;;;;;;6166440;28;19946;-46
2023/03/16 06:55:06;;;;;;;;;;;21.40;45.90;;;;;;6163159;29;19926;-45
2023/03/16 06:58:13;;;;;;;;;;;22.00;46.10;;;;;;6162028;28;20017;-46
2023/03/16 07:01:14;;;;;;;;;;;21.70;46.10;;;;;;6160192;28;19926;-47
2023/03/16 07:04:16;;;;;;;;;;;21.30;45.80;;;;;;6162088;28;19927;-47
2023/03/16 07:07:19;;;;;;;;;;;21.30;45.70;;;;;;6167007;29;19970;-46
2023/03/16 07:10:20;;;;;;;;;;;21.70;46.00;;;;;;6164387;28;19922;-45
2023/03/16 07:13:22;;;;;;;;;;;21.30;45.70;;;;;;6166257;28;19922;-50
2023/03/16 07:16:24;;;;;;;;;;;21.60;45.80;;;;;;6165043;28;19922;-45
2023/03/16 07:19:25;;;;;;;;;;;21.20;45.50;;;;;;6163896;28;19926;-46
2023/03/16 07:22:30;;;;;;;;;;;22.00;46.20;;;;;;6163270;28;20338;-47
2023/03/16 07:25:33;;;;;;;;;;;21.20;45.80;;;;;;6162894;28;19923;-47
2023/03/16 07:28:35;;;;;;;;;;;21.90;46.10;;;;;;6160821;28;19933;-48
2023/03/16 07:31:39;;;;;;;;;;;21.30;45.70;;;;;;6163957;28;19945;-47
2023/03/16 07:34:46;;;;;;;;;;;21.50;45.70;;;;;;6163303;28;19974;-49
2023/03/16 07:37:52;;;;;;;;;;;21.50;45.70;;;;;;6161530;28;19926;-45
2023/03/16 07:40:54;;;;;;;;;;;21.60;45.80;;;;;;6170575;28;19922;-51
2023/03/16 07:43:58;;;;;;;;;;;21.20;45.60;;;;;;6164560;28;19950;-47
2023/03/16 07:46:59;;;;;;;;;;;22.00;45.90;;;;;;6163234;28;19946;-48
2023/03/16 07:50:03;;;;;;;;;;;21.20;45.40;;;;;;6173348;28;19917;-48
2023/03/16 07:53:07;;;;;;;;;;;22.00;45.70;;;;;;6169569;28;19961;-48
2023/03/16 07:56:12;;;;;;;;;;;21.50;45.60;;;;;;6169510;28;20262;-47
2023/03/16 07:59:19;;;;;;;;;;;21.90;45.80;;;;;;6163398;28;19923;-47
2023/03/16 08:02:22;;;;;;;;;;;21.30;45.10;;;;;;6166849;28;19922;-48
2023/03/16 08:05:24;;;;;;;;;;;22.00;45.70;;;;;;6172748;28;19929;-47
2023/03/16 08:08:34;;;;;;;;;;;21.30;45.20;;;;;;6172233;28;19990;-51
2023/03/16 08:11:35;;;;;;;;;;;21.60;45.30;;;;;;6171186;28;19953;-50
2023/03/16 08:14:38;;;;;;;;;;;21.40;45.20;;;;;;6175090;28;19950;-51
2023/03/16 08:17:47;;;;;;;;;;;21.70;45.30;;;;;;6171102;28;19930;-53
2023/03/16 08:24:22;;;;;;;;;;;21.80;43.20;;;;;;6446346;23;19934;-49
2023/03/16 08:30:57;;;;;;;;;;;21.50;43.00;;;;;;6359330;23;19911;-49
2023/03/16 08:34:11;;;;;;;;;;;21.60;44.70;;;;;;6155386;29;19930;-52
2023/03/16 08:37:17;;;;;;;;;;;22.00;45.00;;;;;;6154952;29;19923;-49
2023/03/16 08:40:21;;;;;;;;;;;21.50;44.70;;;;;;6155627;28;19947;-51
2023/03/16 08:43:24;;;;;;;;;;;22.00;44.90;;;;;;6156793;29;19983;-53
2023/03/16 08:46:26;;;;;;;;;;;21.70;44.70;;;;;;6158221;28;19954;-52
2023/03/16 08:49:32;;;;;;;;;;;22.30;44.90;;;;;;6159718;29;19911;-55
2023/03/16 08:52:39;;;;;;;;;;;21.80;44.30;;;;;;6155747;29;19946;-51
2023/03/16 08:55:41;;;;;;;;;;;22.30;42.70;;;;;;6153833;29;19907;-46
2023/03/16 08:58:44;;;;;;;;;;;21.70;44.40;;;;;;6158156;29;20363;-43
2023/03/16 09:01:45;;;;;;;;;;;22.20;44.60;;;;;;6155524;29;19932;-47
2023/03/16 09:04:47;;;;;;;;;;;22.10;44.50;;;;;;6156541;29;19907;-44
2023/03/16 09:07:48;;;;;;;;;;;22.40;44.60;;;;;;6157003;29;19922;-45
2023/03/16 09:10:57;;;;;;;;;;;22.10;44.30;;;;;;6155304;29;19977;-46
2023/03/16 09:13:59;;;;;;;;;;;22.40;45.10;;;;;;6133439;29;19911;-44
2023/03/16 09:17:00;;;;;;;;;;;21.90;44.10;;;;;;6135391;29;19922;-48
2023/03/16 09:20:03;;;;;;;;;;;22.50;44.50;;;;;;6132792;29;19907;-48
2023/03/16 09:23:22;;;;;;;;;;;21.90;44.10;;;;;;6127562;29;19919;-46
2023/03/16 09:26:24;;;;;;;;;;;22.50;44.60;;;;;;6129253;29;19923;-45
2023/03/16 09:29:26;;;;;;;;;;;22.00;44.30;;;;;;6133171;29;19927;-45
2023/03/16 09:32:28;;;;;;;;;;;22.40;44.60;;;;;;6136468;29;20000;-45
2023/03/16 09:35:31;;;;;;;;;;;22.00;44.00;;;;;;6136123;29;19975;-47
2023/03/16 09:38:35;;;;;;;;;;;22.30;44.00;;;;;;6136167;29;19907;-45
2023/03/16 09:41:41;;;;;;;;;;;20.50;43.40;;;;;;6135386;29;19914;-45
2023/03/16 09:44:47;;;;;;;;;;;22.10;44.20;;;;;;6134767;29;19907;-46
2023/03/16 09:47:49;;;;;;;;;;;22.50;44.40;;;;;;6135457;29;19954;-46
2023/03/16 09:50:52;;;;;;;;;;;22.70;44.30;;;;;;6135329;29;19922;-45
2023/03/16 09:53:57;;;;;;;;;;;22.00;44.00;;;;;;6136114;29;19990;-45
2023/03/16 09:57:00;;;;;;;;;;;22.70;44.40;;;;;;6135833;29;19911;-44
2023/03/16 10:00:13;;;;;;;;;;;22.20;44.20;;;;;;6135051;29;19907;-44
2023/03/16 10:03:24;;;;;;;;;;;22.70;44.40;;;;;;6135929;29;19936;-45
2023/03/16 10:06:26;;;;;;;;;;;22.00;43.90;;;;;;6135761;29;19923;-46
2023/03/16 10:09:32;;;;;;;;;;;22.40;43.90;;;;;;6135122;29;19911;-45
2023/03/16 10:12:40;;;;;;;;;;;22.00;44.00;;;;;;6135822;29;19918;-46
2023/03/16 10:15:42;;;;;;;;;;;22.50;44.30;;;;;;6135798;29;19923;-46
2023/03/16 10:18:45;;;;;;;;;;;22.10;44.10;;;;;;6136083;29;19931;-44
2023/03/16 10:21:48;;;;;;;;;;;22.90;44.60;;;;;;6135269;29;19950;-44
2023/03/16 10:24:55;;;;;;;;;;;22.40;44.30;;;;;;6127180;29;19931;-44
2023/03/16 10:27:57;;;;;;;;;;;22.40;42.40;;;;;;6128515;29;19923;-45
2023/03/16 10:31:00;;;;;;;;;;;22.00;44.10;;;;;;6131452;29;19923;-47
2023/03/16 10:34:04;;;;;;;;;;;22.60;44.30;;;;;;6130792;29;19922;-42
2023/03/16 10:37:09;;;;;;;;;;;22.20;44.00;;;;;;6132821;29;19923;-43
2023/03/16 10:40:11;;;;;;;;;;;22.80;44.20;;;;;;6134246;29;19934;-43
2023/03/16 10:43:13;;;;;;;;;;;22.40;43.90;;;;;;6126259;29;19946;-47
2023/03/16 10:46:15;;;;;;;;;;;22.10;43.90;;;;;;6119458;29;19923;-43
2023/03/16 10:49:24;;;;;;;;;;;22.10;43.70;;;;;;6117312;29;20037;-43
2023/03/16 10:52:30;;;;;;;;;;;22.80;44.00;;;;;;6123313;29;19922;-45
2023/03/16 10:55:40;;;;;;;;;;;22.20;43.70;;;;;;6123029;29;19923;-45
2023/03/16 10:58:42;;;;;;;;;;;22.80;43.90;;;;;;6125679;29;19923;-43
2023/03/16 11:01:44;;;;;;;;;;;22.30;43.80;;;;;;6128760;29;19933;-43
2023/03/16 11:04:48;;;;;;;;;;;22.70;43.80;;;;;;6132360;29;19972;-44
2023/03/16 11:07:51;;;;;;;;;;;22.70;42.20;;;;;;6133120;29;19951;-45
2023/03/16 11:10:56;;;;;;;;;;;23.00;43.90;;;;;;6129892;29;19923;-42
2023/03/16 11:13:59;;;;;;;;;;;22.20;43.40;;;;;;6131862;29;19923;-42
2023/03/16 11:17:03;;;;;;;;;;;22.80;43.90;;;;;;6134101;29;19907;-43
2023/03/16 11:20:13;;;;;;;;;;;22.30;43.40;;;;;;6133554;29;19954;-43
2023/03/16 11:23:17;;;;;;;;;;;22.60;43.20;;;;;;6132300;29;19911;-45
2023/03/16 11:26:21;;;;;;;;;;;22.60;43.60;;;;;;6130352;29;19970;-43
2023/03/16 11:29:31;;;;;;;;;;;23.00;43.30;;;;;;6133805;29;19907;-41
2023/03/16 11:32:34;;;;;;;;;;;22.80;42.10;;;;;;6134837;29;19911;-43
2023/03/16 11:35:39;;;;;;;;;;;23.00;43.40;;;;;;6134499;29;19919;-42
2023/03/16 11:39:03;;;;;;;;;;;22.50;43.10;;;;;;6134310;29;19922;-43
2023/03/16 11:42:13;;;;;;;;;;;23.00;43.30;;;;;;6133853;29;19966;-41
2023/03/16 11:45:18;;;;;;;;;;;22.70;43.60;;;;;;6133981;29;19919;-43
2023/03/16 11:48:24;;;;;;;;;;;22.90;43.20;;;;;;6133835;29;19918;-44
2023/03/16 11:51:35;;;;;;;;;;;22.70;43.20;;;;;;6133477;29;19951;-46
2023/03/16 11:54:41;;;;;;;;;;;23.00;43.20;;;;;;6134343;29;19918;-42
2023/03/16 11:57:50;;;;;;;;;;;22.50;43.10;;;;;;6134246;29;19931;-44
2023/03/16 12:00:58;;;;;;;;;;;23.00;43.30;;;;;;6134281;29;19907;-43
2023/03/16 12:04:06;;;;;;;;;;;22.50;43.10;;;;;;6134117;29;19907;-45
2023/03/16 12:07:15;;;;;;;;;;;23.10;43.40;;;;;;6134024;29;19935;-44
2023/03/16 12:10:22;;;;;;;;;;;22.60;43.20;;;;;;6134027;29;19913;-43
2023/03/16 12:13:37;;;;;;;;;;;22.70;43.10;;;;;;6133165;29;20015;-42
2023/03/16 12:16:42;;;;;;;;;;;22.60;43.10;;;;;;6134152;29;19931;-43
2023/03/16 12:19:52;;;;;;;;;;;23.10;43.30;;;;;;6134095;29;19997;-43
2023/03/16 12:22:58;;;;;;;;;;;22.50;43.00;;;;;;6137582;29;19923;-43
2023/03/16 12:26:02;;;;;;;;;;;23.00;43.20;;;;;;6138179;29;19945;-43
2023/03/16 12:29:07;;;;;;;;;;;22.60;43.00;;;;;;6138087;29;19911;-43
2023/03/16 12:32:13;;;;;;;;;;;23.10;43.30;;;;;;6105312;29;19911;-44
2023/03/16 12:35:20;;;;;;;;;;;22.60;43.00;;;;;;6138035;29;19907;-44
2023/03/16 12:38:29;;;;;;;;;;;23.20;43.20;;;;;;6138124;29;19923;-44
2023/03/16 12:41:33;;;;;;;;;;;22.60;42.90;;;;;;6138017;29;19918;-43
2023/03/16 12:44:39;;;;;;;;;;;23.10;43.30;;;;;;6137882;29;19923;-43
2023/03/16 12:47:47;;;;;;;;;;;22.70;43.10;;;;;;6137625;29;19941;-43
2023/03/16 12:50:49;;;;;;;;;;;22.90;43.10;;;;;;6135441;29;19923;-44
2023/03/16 12:53:52;;;;;;;;;;;22.50;43.00;;;;;;6128016;29;19922;-48
2023/03/16 13:05:06;;;;;;;;;;;23.10;42.10;;;;;;6157559;29;19910;-44
2023/03/16 13:08:10;;;;;;;;;;;22.90;43.20;;;;;;6160344;28;19907;-48
2023/03/16 13:11:13;;;;;;;;;;;23.00;43.00;;;;;;6159641;28;19914;-44
2023/03/16 13:14:15;;;;;;;;;;;22.70;42.70;;;;;;6156067;29;19922;-46
2023/03/16 13:17:26;;;;;;;;;;;23.20;43.00;;;;;;6157758;29;19923;-44
2023/03/16 13:20:29;;;;;;;;;;;22.80;42.60;;;;;;6156426;29;19930;-43
2023/03/16 13:23:46;;;;;;;;;;;23.20;42.90;;;;;;6159600;29;19954;-43
2023/03/16 13:26:49;;;;;;;;;;;23.00;42.70;;;;;;6159925;29;19927;-42
2023/03/16 13:29:53;;;;;;;;;;;23.20;42.60;;;;;;6157734;28;19910;-44
2023/03/16 13:32:58;;;;;;;;;;;22.90;42.50;;;;;;6154295;29;19930;-44
2023/03/16 13:36:00;;;;;;;;;;;23.30;42.70;;;;;;6157628;29;19922;-44
2023/03/16 13:39:03;;;;;;;;;;;23.00;42.60;;;;;;6160086;28;19911;-45
2023/03/16 13:42:15;;;;;;;;;;;23.30;42.60;;;;;;6160356;28;19994;-44
2023/03/16 13:45:19;;;;;;;;;;;22.90;42.50;;;;;;6159633;28;19921;-44
2023/03/16 13:48:20;;;;;;;;;;;23.50;42.70;;;;;;6159748;28;19923;-43
2023/03/16 13:51:22;;;;;;;;;;;22.90;42.50;;;;;;6158183;28;19914;-47
2023/03/16 13:54:25;;;;;;;;;;;23.60;42.80;;;;;;6159124;29;19935;-45
2023/03/16 13:57:27;;;;;;;;;;;23.00;42.40;;;;;;6159234;29;19922;-44
2023/03/16 14:00:31;;;;;;;;;;;23.60;42.60;;;;;;6159803;29;19918;-44
2023/03/16 14:03:34;;;;;;;;;;;23.30;42.50;;;;;;6159239;29;19929;-44
2023/03/16 14:06:37;;;;;;;;;;;23.40;42.50;;;;;;6157629;29;19991;-46
2023/03/16 14:09:38;;;;;;;;;;;23.00;42.40;;;;;;6158475;29;19922;-44
2023/03/16 14:12:49;;;;;;;;;;;23.60;42.50;;;;;;6158561;28;19940;-44
2023/03/16 14:15:52;;;;;;;;;;;23.10;42.40;;;;;;6159441;29;19923;-47
2023/03/16 14:18:56;;;;;;;;;;;23.50;42.50;;;;;;6159099;29;19910;-42
2023/03/16 14:22:02;;;;;;;;;;;23.00;42.20;;;;;;6158977;28;19918;-44
2023/03/16 14:25:05;;;;;;;;;;;23.80;42.60;;;;;;6157763;29;19947;-44
2023/03/16 14:28:06;;;;;;;;;;;23.20;42.30;;;;;;6158604;29;19947;-44
2023/03/16 14:31:09;;;;;;;;;;;23.60;42.50;;;;;;6159298;29;19923;-43
2023/03/16 14:34:20;;;;;;;;;;;23.60;42.40;;;;;;6158892;29;19958;-45
2023/03/16 14:37:32;;;;;;;;;;;23.60;42.40;;;;;;6157351;29;19915;-45
2023/03/16 14:40:34;;;;;;;;;;;23.20;42.30;;;;;;6158592;29;19917;-45
2023/03/16 14:43:45;;;;;;;;;;;23.70;42.40;;;;;;6148130;29;19937;-45
2023/03/16 14:46:47;;;;;;;;;;;23.60;42.20;;;;;;6156787;29;19985;-45
2023/03/16 14:49:53;;;;;;;;;;;23.80;42.30;;;;;;6153754;29;19922;-46
2023/03/16 14:52:56;;;;;;;;;;;23.60;42.20;;;;;;6144629;29;19923;-45
2023/03/16 14:55:58;;;;;;;;;;;23.30;42.10;;;;;;6147562;28;19954;-44
2023/03/16 14:58:59;;;;;;;;;;;23.50;42.20;;;;;;6152552;29;19923;-45
2023/03/16 15:02:03;;;;;;;;;;;23.60;42.20;;;;;;6167367;28;19910;-45
2023/03/16 15:05:04;;;;;;;;;;;23.40;42.00;;;;;;6153109;29;19923;-46
2023/03/16 15:08:11;;;;;;;;;;;23.90;42.40;;;;;;6155568;29;19933;-45
2023/03/16 15:11:13;;;;;;;;;;;24.00;42.20;;;;;;6154405;29;19951;-45
2023/03/16 15:15:13;;;;;;;;;;;23.60;42.10;;;;;;6154829;29;19914;-44
2023/03/16 15:17:36;;;;;;;;;;;23.60;42.00;;;;;;6167115;28;19982;-46
2023/03/16 15:20:39;;;;;;;;;;;23.70;42.00;;;;;;6156178;29;19923;-43
2023/03/16 15:23:41;;;;;;;;;;;23.90;42.10;;;;;;6155423;29;19923;-44
2023/03/16 15:26:43;;;;;;;;;;;23.90;42.20;;;;;;6153931;29;19933;-44
2023/03/16 15:29:44;;;;;;;;;;;23.80;42.20;;;;;;6154898;29;19922;-46
2023/03/16 15:32:46;;;;;;;;;;;24.20;42.30;;;;;;6153687;29;19923;-48
2023/03/16 15:35:48;;;;;;;;;;;24.00;42.20;;;;;;6156215;29;19997;-47
2023/03/16 15:38:52;;;;;;;;;;;23.90;42.10;;;;;;6151675;29;20011;-44
2023/03/16 15:41:53;;;;;;;;;;;23.60;42.00;;;;;;6153685;29;19929;-44
2023/03/16 15:44:54;;;;;;;;;;;24.00;42.20;;;;;;6156331;29;19918;-45
2023/03/16 15:47:56;;;;;;;;;;;23.70;42.00;;;;;;6154435;29;20080;-46
2023/03/16 15:50:58;;;;;;;;;;;24.20;42.30;;;;;;6156857;29;19922;-43
2023/03/16 15:54:01;;;;;;;;;;;23.70;42.00;;;;;;6157308;28;19906;-45
2023/03/16 15:57:04;;;;;;;;;;;24.10;42.30;;;;;;6154695;28;19951;-44
2023/03/16 16:00:12;;;;;;;;;;;23.60;42.00;;;;;;6152770;29;19922;-45
2023/03/16 16:03:13;;;;;;;;;;;24.00;42.80;;;;;;6150779;29;19923;-45
2023/03/16 16:06:16;;;;;;;;;;;23.70;42.10;;;;;;6153507;29;19911;-43
2023/03/16 16:09:19;;;;;;;;;;;24.00;42.20;;;;;;6152549;29;19907;-44
2023/03/16 16:12:25;;;;;;;;;;;23.60;42.00;;;;;;6151337;29;19922;-45
2023/03/16 16:15:31;;;;;;;;;;;24.10;42.20;;;;;;6151689;29;19939;-45
2023/03/16 16:18:35;;;;;;;;;;;23.70;42.10;;;;;;6148751;29;19925;-46
2023/03/16 16:21:36;;;;;;;;;;;24.20;42.30;;;;;;6151680;28;19923;-45
2023/03/16 16:24:38;;;;;;;;;;;24.10;42.20;;;;;;6151597;29;19930;-44
2023/03/16 16:27:40;;;;;;;;;;;24.20;42.40;;;;;;6144064;29;19989;-44
2023/03/16 16:30:43;;;;;;;;;;;23.60;42.10;;;;;;6137891;29;20462;-46
2023/03/16 16:33:44;;;;;;;;;;;24.20;42.30;;;;;;6135584;29;19923;-45
2023/03/16 16:36:45;;;;;;;;;;;23.90;42.20;;;;;;6133674;29;19922;-43
2023/03/16 16:39:51;;;;;;;;;;;24.00;42.40;;;;;;6134151;29;19922;-44
2023/03/16 16:42:54;;;;;;;;;;;23.80;42.30;;;;;;6133550;29;19927;-43
2023/03/16 16:45:55;;;;;;;;;;;24.10;41.90;;;;;;6134339;29;19922;-43
2023/03/16 16:48:58;;;;;;;;;;;23.70;42.10;;;;;;6137450;29;19933;-43
2023/03/16 16:52:00;;;;;;;;;;;24.10;42.40;;;;;;6135736;29;19958;-43
2023/03/16 16:55:02;;;;;;;;;;;23.70;42.20;;;;;;6137126;29;19922;-45
2023/03/16 16:58:05;;;;;;;;;;;24.20;42.50;;;;;;6137056;29;19922;-46
2023/03/16 17:01:14;;;;;;;;;;;23.70;42.20;;;;;;6134694;29;20021;-46
2023/03/16 17:04:17;;;;;;;;;;;24.10;42.50;;;;;;6133212;29;19981;-44
2023/03/16 17:07:18;;;;;;;;;;;23.70;42.40;;;;;;6133786;29;19923;-44
2023/03/16 17:10:21;;;;;;;;;;;24.20;42.70;;;;;;6135706;29;19923;-46
2023/03/16 17:13:25;;;;;;;;;;;23.60;42.40;;;;;;6134623;29;20318;-43
2023/03/16 17:16:30;;;;;;;;;;;24.00;42.50;;;;;;6134809;29;19929;-43
2023/03/16 17:19:32;;;;;;;;;;;23.60;42.40;;;;;;6135558;29;19923;-43
2023/03/16 17:22:35;;;;;;;;;;;24.20;42.70;;;;;;6138831;29;19923;-43
2023/03/16 17:25:37;;;;;;;;;;;23.70;42.40;;;;;;6145594;29;19922;-45
2023/03/16 17:28:41;;;;;;;;;;;24.10;42.70;;;;;;6142913;29;19929;-48
2023/03/16 17:31:42;;;;;;;;;;;23.70;42.50;;;;;;6138030;29;19930;-46
2023/03/16 17:34:45;;;;;;;;;;;24.10;42.70;;;;;;6132212;29;19930;-47
2023/03/16 17:37:46;;;;;;;;;;;23.60;42.40;;;;;;6132533;29;19923;-45
2023/03/16 17:40:50;;;;;;;;;;;24.10;42.80;;;;;;6136467;29;19927;-46
2023/03/16 17:43:53;;;;;;;;;;;23.60;42.50;;;;;;6158252;29;19930;-45
2023/03/16 17:46:54;;;;;;;;;;;23.90;42.60;;;;;;6159858;29;19918;-46
2023/03/16 17:49:58;;;;;;;;;;;23.50;42.60;;;;;;6159208;29;19930;-48
2023/03/16 17:52:59;;;;;;;;;;;23.90;42.90;;;;;;6160008;29;19923;-47
2023/03/16 17:56:01;;;;;;;;;;;23.40;42.80;;;;;;6159914;29;19907;-46
2023/03/16 17:59:04;;;;;;;;;;;23.90;43.10;;;;;;6159979;29;19930;-47
2023/03/16 18:02:20;;;;;;;;;;;23.60;43.00;;;;;;6159340;29;19907;-45
2023/03/16 18:05:25;;;;;;;;;;;24.00;43.20;;;;;;6159679;29;19929;-44
2023/03/16 18:08:32;;;;;;;;;;;23.30;43.00;;;;;;6158965;29;19923;-46
2023/03/16 18:11:35;;;;;;;;;;;23.70;43.20;;;;;;6158883;29;19927;-44